Time;durP1;ratioP1;P1;durP2;ratioP2;P2;SDS_P1;SDS_P2;PMS_P1;PMS_P2;Temp;Humidity;BMP_temperature;BMP_pressure;BME280_temperature;BME280_humidity;BME280_pressure;Samples;Min_cycle;Max_cycle;Signal;HPM_P1;HPM_P2
2023/04/28 00:00:27;;;;;;;5.20;3.65;;;;;;;7.85;100.00;95768.75;1026106;28;20039;-71
2023/04/28 00:00:57;;;;;;;5.00;3.35;;;;;;;7.85;100.00;95769.53;1022474;28;20041;-71
2023/04/28 00:01:28;;;;;;;4.60;3.40;;;;;;;7.86;100.00;95775.53;1026319;28;20043;-71
2023/04/28 00:01:58;;;;;;;4.95;3.30;;;;;;;7.86;100.00;95765.09;1022295;28;20545;-73
2023/04/28 00:02:29;;;;;;;6.25;3.75;;;;;;;7.85;100.00;95773.97;1022264;29;20420;-72
2023/04/28 00:02:59;;;;;;;7.80;3.63;;;;;;;7.84;100.00;95761.91;1028942;28;20034;-71
2023/04/28 00:03:30;;;;;;;9.63;3.70;;;;;;;7.86;100.00;95765.09;1026081;28;20062;-71
2023/04/28 00:04:00;;;;;;;4.82;3.28;;;;;;;7.70;100.00;95743.22;1022297;28;20035;-71
2023/04/28 00:04:31;;;;;;;6.10;3.15;;;;;;;7.87;100.00;95762.22;1022382;28;20043;-72
2023/04/28 00:05:01;;;;;;;5.75;3.35;;;;;;;7.86;100.00;95762.47;1022678;28;20046;-72
2023/04/28 00:05:32;;;;;;;5.50;3.92;;;;;;;7.87;100.00;95764.81;1030547;28;20030;-71
2023/04/28 00:06:03;;;;;;;4.13;3.13;;;;;;;7.80;100.00;95759.78;1030657;28;20045;-71
2023/04/28 00:06:33;;;;;;;7.00;3.60;;;;;;;7.87;100.00;95761.44;1030483;28;20069;-71
2023/04/28 00:07:04;;;;;;;12.07;4.05;;;;;;;7.82;100.00;95758.78;1034402;28;20399;-71
2023/04/28 00:07:34;;;;;;;7.45;3.83;;;;;;;7.86;100.00;95765.88;1026610;28;20122;-72
2023/04/28 00:08:04;;;;;;;4.75;3.50;;;;;;;7.83;100.00;95757.72;1026501;28;20035;-72
2023/04/28 00:08:35;;;;;;;9.77;3.40;;;;;;;7.88;100.00;95763.81;1029924;28;20486;-70
2023/04/28 00:09:09;;;;;;;6.32;3.60;;;;;;;7.87;100.00;95772.66;1030133;28;20114;-72
2023/04/28 00:09:40;;;;;;;5.97;3.63;;;;;;;7.88;100.00;95766.44;1031478;28;20038;-72
2023/04/28 00:10:11;;;;;;;5.65;3.55;;;;;;;7.86;100.00;95762.47;1037061;28;20260;-72
2023/04/28 00:10:41;;;;;;;7.90;3.67;;;;;;;7.90;100.00;95760.94;1036583;28;20022;-72
2023/04/28 00:11:12;;;;;;;6.20;3.50;;;;;;;7.85;100.00;95763.50;1030080;28;20030;-72
2023/04/28 00:11:45;;;;;;;4.88;3.53;;;;;;;7.87;100.00;95764.81;1025718;28;20523;-71
2023/04/28 00:12:16;;;;;;;4.90;3.35;;;;;;;7.88;100.00;95760.38;1026861;28;20122;-71
2023/04/28 00:12:46;;;;;;;4.53;3.15;;;;;;;7.83;100.00;95755.13;1030661;28;20268;-72
2023/04/28 00:13:17;;;;;;;5.05;3.50;;;;;;;7.87;100.00;95764.81;1027027;28;20027;-72
2023/04/28 00:13:47;;;;;;;5.45;3.35;;;;;;;7.86;100.00;95772.91;1030384;28;20464;-71
2023/04/28 00:14:17;;;;;;;5.00;3.17;;;;;;;7.85;100.00;95772.13;1030213;28;20516;-72
2023/04/28 00:14:48;;;;;;;6.28;3.90;;;;;;;7.84;100.00;95769.75;1028229;28;20093;-71
2023/04/28 00:15:18;;;;;;;4.60;3.25;;;;;;;7.83;100.00;95761.13;1030271;28;20069;-71
2023/04/28 00:15:51;;;;;;;5.88;3.80;;;;;;;7.82;100.00;95761.38;1022346;29;20034;-71
2023/04/28 00:16:22;;;;;;;5.57;3.40;;;;;;;7.82;100.00;95764.00;1020396;28;20541;-73
2023/04/28 00:16:55;;;;;;;7.22;3.72;;;;;;;7.80;100.00;95772.06;1022168;28;20274;-72
2023/04/28 00:17:26;;;;;;;6.68;3.50;;;;;;;7.79;100.00;95768.66;1023795;28;20024;-72
2023/04/28 00:17:56;;;;;;;7.00;3.50;;;;;;;7.79;100.00;95765.28;1031637;28;20258;-71
2023/04/28 00:18:27;;;;;;;7.82;4.55;;;;;;;7.75;100.00;95762.34;1038843;28;20021;-72
2023/04/28 00:18:58;;;;;;;10.30;3.95;;;;;;;7.77;100.00;95762.88;1037646;28;20065;-72
2023/04/28 00:19:29;;;;;;;3.58;2.85;;;;;;;7.76;100.00;95768.38;1030441;28;20284;-71
2023/04/28 00:19:59;;;;;;;4.57;3.30;;;;;;;7.73;100.00;95764.41;1026054;28;20015;-72
2023/04/28 00:20:30;;;;;;;5.47;3.50;;;;;;;7.74;100.00;95763.38;1026184;28;20031;-71
2023/04/28 00:21:00;;;;;;;6.65;3.90;;;;;;;7.75;100.00;95764.97;1030229;28;20023;-71
2023/04/28 00:21:31;;;;;;;6.35;3.60;;;;;;;7.73;100.00;95764.41;1030146;28;20034;-72
2023/04/28 00:22:01;;;;;;;9.35;3.90;;;;;;;7.73;100.00;95767.03;1030145;28;20026;-71
2023/04/28 00:22:32;;;;;;;5.68;3.38;;;;;;;7.74;100.00;95765.97;1022372;28;20023;-71
2023/04/28 00:23:02;;;;;;;5.95;3.85;;;;;;;7.69;100.00;95757.31;1022072;28;20015;-70
2023/04/28 00:23:33;;;;;;;5.78;3.50;;;;;;;7.73;100.00;95769.63;1026108;28;20038;-72
2023/04/28 00:24:03;;;;;;;7.05;3.85;;;;;;;7.66;100.00;95763.03;1024559;28;20058;-71
2023/04/28 00:24:35;;;;;;;7.70;3.28;;;;;;;7.72;100.00;95767.28;1022110;28;20492;-71
2023/04/28 00:25:06;;;;;;;6.40;3.80;;;;;;;7.66;100.00;95766.41;1026137;28;20531;-72
2023/04/28 00:25:36;;;;;;;5.20;3.58;;;;;;;7.70;100.00;95766.72;1026092;28;20274;-72
2023/04/28 00:26:07;;;;;;;14.60;4.18;;;;;;;7.64;100.00;95759.84;1029832;28;20037;-71
2023/04/28 00:26:37;;;;;;;6.45;3.75;;;;;;;7.68;100.00;95758.31;1030071;28;20523;-71
2023/04/28 00:27:08;;;;;;;5.65;3.58;;;;;;;7.67;100.00;95768.00;1022149;28;20027;-71
2023/04/28 00:27:38;;;;;;;4.80;3.60;;;;;;;7.67;100.00;95762.75;1026378;28;20033;-71
2023/04/28 00:28:08;;;;;;;8.57;4.10;;;;;;;7.68;100.00;95766.16;1025925;28;20026;-70
2023/04/28 00:28:39;;;;;;;6.13;3.60;;;;;;;7.63;100.00;95759.06;1021690;29;20020;-71
2023/04/28 00:29:09;;;;;;;5.05;3.67;;;;;;;7.69;100.00;95759.94;1021656;29;20036;-71
2023/04/28 00:29:40;;;;;;;5.57;3.38;;;;;;;7.67;100.00;95757.53;1026234;28;20019;-71
2023/04/28 00:30:11;;;;;;;4.93;3.42;;;;;;;7.67;100.00;95751.53;1022097;28;20019;-71
2023/04/28 00:30:41;;;;;;;5.00;3.90;;;;;;;7.66;100.00;95761.19;1026183;28;20038;-71
2023/04/28 00:31:12;;;;;;;5.30;3.97;;;;;;;7.64;100.00;95747.59;1026285;28;20023;-72
2023/04/28 00:31:43;;;;;;;5.15;3.35;;;;;;;7.63;100.00;95746.00;1022138;29;20027;-72
2023/04/28 00:32:14;;;;;;;6.03;3.80;;;;;;;7.70;100.00;95756.28;1030239;28;20269;-72
2023/04/28 00:32:44;;;;;;;6.13;4.20;;;;;;;7.69;100.00;95752.88;1030074;28;20277;-72
2023/04/28 00:33:15;;;;;;;4.43;3.38;;;;;;;7.71;100.00;95757.84;1021835;29;20019;-71
2023/04/28 00:33:45;;;;;;;4.70;3.20;;;;;;;7.68;100.00;95759.16;1022325;28;20727;-71
2023/04/28 00:34:15;;;;;;;10.13;4.30;;;;;;;7.71;100.00;95761.28;1026199;28;20023;-72
2023/04/28 00:34:46;;;;;;;7.28;3.50;;;;;;;7.71;100.00;95757.84;1026233;28;20538;-71
2023/04/28 00:35:16;;;;;;;9.07;4.32;;;;;;;7.70;100.00;95762.28;1034041;28;20121;-72
2023/04/28 00:35:47;;;;;;;5.57;3.63;;;;;;;7.71;100.00;95758.66;1034223;28;20112;-71
2023/04/28 00:36:17;;;;;;;5.25;3.70;;;;;;;7.71;100.00;95756.06;1034307;28;20394;-71
2023/04/28 00:36:48;;;;;;;4.65;3.53;;;;;;;7.68;100.00;95742.66;1034137;28;20021;-72
2023/04/28 00:37:19;;;;;;;8.55;3.83;;;;;;;7.71;100.00;95753.44;1026172;28;20030;-70
2023/04/28 00:37:49;;;;;;;5.05;3.70;;;;;;;7.73;100.00;95756.56;1026184;28;20015;-72
2023/04/28 00:38:20;;;;;;;6.88;3.70;;;;;;;7.73;100.00;95756.56;1022326;28;20108;-72
2023/04/28 00:38:50;;;;;;;5.75;3.92;;;;;;;7.73;100.00;95755.78;1021852;28;20031;-72
2023/04/28 00:39:22;;;;;;;5.57;3.70;;;;;;;7.73;100.00;95748.75;1025976;28;20027;-72
2023/04/28 00:39:55;;;;;;;4.97;3.47;;;;;;;7.73;100.00;95750.56;1030562;28;20019;-71
2023/04/28 00:40:35;;;;;;;4.10;3.33;;;;;;;7.74;100.00;95747.69;1033946;28;21142;-72
2023/04/28 00:41:06;;;;;;;7.53;3.15;;;;;;;7.76;100.00;95747.47;1031955;28;20266;-72
2023/04/28 00:41:36;;;;;;;8.43;3.95;;;;;;;7.77;100.00;95746.44;1025874;28;20050;-71
2023/04/28 00:42:07;;;;;;;6.53;4.07;;;;;;;7.75;100.00;95744.06;1025299;28;20037;-71
2023/04/28 00:42:37;;;;;;;8.30;3.65;;;;;;;7.80;100.00;95748.56;1022218;28;20083;-71
2023/04/28 00:43:07;;;;;;;4.32;3.42;;;;;;;7.80;100.00;95746.72;1029831;28;20026;-71
2023/04/28 00:43:45;;;;;;;4.75;4.13;;;;;;;7.77;100.00;95738.59;1031544;28;20026;-70
2023/04/28 00:44:15;;;;;;;5.13;3.67;;;;;;;7.83;100.00;95739.44;1026168;28;20030;-72
2023/04/28 00:44:46;;;;;;;8.07;4.00;;;;;;;7.83;100.00;95744.66;1022304;29;20676;-72
2023/04/28 00:45:16;;;;;;;5.63;4.07;;;;;;;7.85;100.00;95742.63;1023047;28;20038;-71
2023/04/28 00:45:50;;;;;;;6.20;3.60;;;;;;;7.85;100.00;95740.00;1026230;28;20077;-71
2023/04/28 00:46:28;;;;;;;5.45;3.65;;;;;;;7.80;100.00;95735.50;1026728;28;20507;-72
2023/04/28 00:46:59;;;;;;;7.45;3.75;;;;;;;7.83;100.00;95745.47;1023229;28;20267;-71
2023/04/28 00:47:29;;;;;;;7.78;3.75;;;;;;;7.83;100.00;95742.06;1026100;28;20329;-71
2023/04/28 00:48:00;;;;;;;7.97;3.85;;;;;;;7.80;100.00;95741.50;1025949;28;20027;-71
2023/04/28 00:48:30;;;;;;;4.85;3.25;;;;;;;7.84;100.00;95746.25;1030039;28;20046;-72
2023/04/28 00:49:00;;;;;;;6.85;3.60;;;;;;;7.85;100.00;95746.00;1029272;28;20018;-71
2023/04/28 00:49:32;;;;;;;7.45;3.70;;;;;;;7.87;100.00;95751.75;1026009;28;20027;-72
2023/04/28 00:50:07;;;;;;;6.15;3.65;;;;;;;7.79;100.00;95737.31;1022366;28;20035;-71
2023/04/28 00:50:37;;;;;;;6.93;3.30;;;;;;;7.86;100.00;95749.41;1022645;28;20333;-71
2023/04/28 00:51:08;;;;;;;6.80;3.83;;;;;;;7.88;100.00;95742.09;1030249;28;20316;-71
2023/04/28 00:51:38;;;;;;;5.45;3.70;;;;;;;7.87;100.00;95745.75;1030430;28;20463;-71
2023/04/28 00:52:08;;;;;;;5.50;3.53;;;;;;;7.87;100.00;95741.31;1031727;28;20031;-71
2023/04/28 00:52:40;;;;;;;12.00;3.40;;;;;;;7.88;100.00;95747.31;1026395;28;20430;-72
2023/04/28 00:53:11;;;;;;;6.03;3.38;;;;;;;7.89;100.00;95733.25;1026495;28;20401;-72
2023/04/28 00:53:42;;;;;;;5.20;3.70;;;;;;;7.83;100.00;95736.84;1026553;28;20273;-72
2023/04/28 00:54:13;;;;;;;8.60;3.80;;;;;;;7.86;100.00;95731.13;1022543;28;20259;-72
2023/04/28 00:54:44;;;;;;;8.15;4.10;;;;;;;7.87;100.00;95740.53;1022257;29;20335;-72
2023/04/28 00:55:15;;;;;;;9.45;4.03;;;;;;;7.88;100.00;95731.66;1018249;29;20425;-71
2023/04/28 00:55:45;;;;;;;8.65;4.03;;;;;;;7.89;100.00;95735.88;1022546;28;20577;-72
2023/04/28 00:56:16;;;;;;;9.13;3.47;;;;;;;7.92;100.00;95735.38;1018383;29;20024;-71
2023/04/28 00:56:46;;;;;;;8.23;3.85;;;;;;;7.90;100.00;95735.59;1026298;28;20023;-72
2023/04/28 00:57:16;;;;;;;6.75;3.80;;;;;;;7.88;100.00;95736.88;1026134;28;20026;-72
2023/04/28 00:57:47;;;;;;;7.20;3.55;;;;;;;7.90;100.00;95733.00;1025879;28;20671;-70
2023/04/28 00:58:17;;;;;;;7.10;3.90;;;;;;;7.90;100.00;95732.22;1022017;29;20015;-70
2023/04/28 00:58:48;;;;;;;8.27;4.18;;;;;;;7.89;100.00;95728.81;1017455;29;20027;-72
2023/04/28 00:59:18;;;;;;;7.47;3.97;;;;;;;7.90;100.00;95730.38;1022555;28;20039;-72
2023/04/28 00:59:49;;;;;;;7.63;3.47;;;;;;;7.84;100.00;95714.91;1026191;28;20086;-72
2023/04/28 01:00:19;;;;;;;6.47;4.20;;;;;;;7.88;100.00;95729.03;1022129;28;20749;-72
2023/04/28 01:00:50;;;;;;;7.07;4.75;;;;;;;7.90;100.00;95726.97;1026197;28;20037;-72
2023/04/28 01:01:21;;;;;;;7.40;4.05;;;;;;;7.88;100.00;95723.81;1030068;28;20025;-72
2023/04/28 01:01:51;;;;;;;6.50;4.25;;;;;;;7.89;100.00;95728.03;1034304;28;20483;-71
2023/04/28 01:02:22;;;;;;;12.80;4.22;;;;;;;7.90;100.00;95729.59;1029950;28;20026;-71
2023/04/28 01:02:52;;;;;;;6.88;4.15;;;;;;;7.88;100.00;95726.44;1026034;28;20022;-72
2023/04/28 01:03:23;;;;;;;6.13;3.70;;;;;;;7.82;100.00;95716.97;1026244;28;20110;-71
2023/04/28 01:03:53;;;;;;;6.72;4.18;;;;;;;7.87;100.00;95730.09;1022301;29;20328;-72
2023/04/28 01:04:24;;;;;;;6.85;3.45;;;;;;;7.86;100.00;95728.50;1025856;28;20031;-72
2023/04/28 01:04:55;;;;;;;7.35;3.80;;;;;;;7.78;100.00;95714.06;1029937;28;20023;-72
2023/04/28 01:05:26;;;;;;;7.03;3.80;;;;;;;7.81;100.00;95724.00;1018180;29;20142;-72
2023/04/28 01:05:56;;;;;;;7.10;3.88;;;;;;;7.74;100.00;95705.91;1022071;29;20896;-72
2023/04/28 01:06:27;;;;;;;7.13;3.75;;;;;;;7.80;100.00;95720.59;1021951;29;20041;-72
2023/04/28 01:06:57;;;;;;;6.55;3.78;;;;;;;7.81;100.00;95731.84;1025889;28;20030;-72
2023/04/28 01:07:28;;;;;;;5.85;3.83;;;;;;;7.71;100.00;95711.66;1026069;28;20827;-71
2023/04/28 01:07:58;;;;;;;4.95;3.47;;;;;;;7.79;100.00;95719.03;1018035;29;20118;-72
2023/04/28 01:08:32;;;;;;;5.10;4.20;;;;;;;7.79;100.00;95721.66;1018148;29;20031;-71
2023/04/28 01:09:04;;;;;;;4.10;3.33;;;;;;;7.72;100.00;95708.00;1022340;28;20034;-72
2023/04/28 01:09:35;;;;;;;4.88;3.22;;;;;;;7.77;100.00;95715.88;1023283;28;20302;-72
2023/04/28 01:10:06;;;;;;;6.72;3.40;;;;;;;7.78;100.00;95716.69;1029922;28;20282;-71
2023/04/28 01:10:42;;;;;;;5.85;3.92;;;;;;;7.76;100.00;95716.91;1029163;28;20042;-71
2023/04/28 01:11:13;;;;;;;6.85;3.47;;;;;;;7.75;100.00;95715.34;1025936;28;20278;-71
2023/04/28 01:11:43;;;;;;;7.38;3.30;;;;;;;7.76;100.00;95713.50;1027003;28;20823;-71
2023/04/28 01:12:13;;;;;;;6.05;3.30;;;;;;;7.75;100.00;95712.72;1030136;28;20030;-72
2023/04/28 01:12:44;;;;;;;5.80;3.70;;;;;;;7.72;100.00;95700.16;1029981;28;20070;-71
2023/04/28 01:13:14;;;;;;;8.30;3.40;;;;;;;7.73;100.00;95701.72;1025807;28;20046;-71
2023/04/28 01:13:45;;;;;;;6.70;3.10;;;;;;;7.73;100.00;95701.72;1022048;29;20456;-71
2023/04/28 01:14:15;;;;;;;6.28;3.22;;;;;;;7.70;100.00;95701.44;1018173;29;20032;-72
2023/04/28 01:14:47;;;;;;;6.68;3.65;;;;;;;7.72;100.00;95694.16;1021796;28;20528;-71
2023/04/28 01:15:18;;;;;;;4.28;3.38;;;;;;;7.72;100.00;95694.94;1022080;28;20105;-71
2023/04/28 01:15:49;;;;;;;9.80;3.60;;;;;;;7.73;100.00;95696.50;1022566;28;20303;-71
2023/04/28 01:16:20;;;;;;;6.63;3.25;;;;;;;7.74;100.00;95695.47;1025784;28;20349;-71
2023/04/28 01:16:50;;;;;;;5.72;3.47;;;;;;;7.75;100.00;95693.66;1026485;28;20023;-74
2023/04/28 01:17:20;;;;;;;3.83;2.78;;;;;;;7.74;100.00;95692.84;1025963;28;20038;-71
2023/04/28 01:17:51;;;;;;;4.05;3.60;;;;;;;7.76;100.00;95698.63;1030098;28;20030;-73
2023/04/28 01:18:21;;;;;;;5.07;3.15;;;;;;;7.74;100.00;95698.06;1025956;28;20023;-70
2023/04/28 01:18:52;;;;;;;3.53;2.97;;;;;;;7.73;100.00;95693.09;1025431;28;20033;-70
2023/04/28 01:19:22;;;;;;;4.80;3.17;;;;;;;7.72;100.00;95681.88;1029908;28;20022;-71
2023/04/28 01:19:53;;;;;;;6.35;3.58;;;;;;;7.79;100.00;95692.13;1034184;28;20053;-72
2023/04/28 01:20:23;;;;;;;5.88;3.53;;;;;;;7.79;100.00;95695.53;1029920;28;20068;-70
2023/04/28 01:20:55;;;;;;;8.18;3.55;;;;;;;7.82;100.00;95690.84;1030217;28;20077;-71
2023/04/28 01:21:27;;;;;;;5.20;3.55;;;;;;;7.83;100.00;95689.81;1033833;28;20511;-72
2023/04/28 01:21:58;;;;;;;6.82;3.33;;;;;;;7.84;100.00;95696.59;1030763;28;20265;-72
2023/04/28 01:22:28;;;;;;;6.55;3.70;;;;;;;7.86;100.00;95692.72;1030009;28;21213;-71
2023/04/28 01:22:59;;;;;;;5.60;3.20;;;;;;;7.85;100.00;95692.97;1026510;28;20101;-72
2023/04/28 01:23:29;;;;;;;5.40;3.38;;;;;;;7.80;100.00;95684.03;1030070;28;20045;-71
2023/04/28 01:24:00;;;;;;;5.22;2.72;;;;;;;7.80;100.00;95678.03;1026260;28;20030;-71
2023/04/28 01:24:30;;;;;;;3.80;2.80;;;;;;;7.86;100.00;95686.72;1026155;28;20043;-71
2023/04/28 01:25:02;;;;;;;4.43;3.13;;;;;;;7.85;100.00;95690.38;1026019;28;20059;-71
2023/04/28 01:25:33;;;;;;;4.47;3.05;;;;;;;7.86;100.00;95689.31;1025932;28;20034;-71
2023/04/28 01:26:03;;;;;;;5.22;2.90;;;;;;;7.86;100.00;95687.50;1025887;28;20261;-71
2023/04/28 01:26:34;;;;;;;6.22;3.10;;;;;;;7.70;100.00;95663.03;1022262;28;20137;-71
2023/04/28 01:27:05;;;;;;;7.18;3.72;;;;;;;7.87;100.00;95690.91;1026350;28;20030;-72
2023/04/28 01:27:35;;;;;;;5.95;2.97;;;;;;;7.87;100.00;95693.50;1029986;28;20034;-71
2023/04/28 01:28:06;;;;;;;8.13;3.28;;;;;;;7.85;100.00;95679.91;1030272;28;20108;-71
2023/04/28 01:28:36;;;;;;;4.75;3.13;;;;;;;7.88;100.00;95690.66;1025454;28;20489;-71
2023/04/28 01:29:07;;;;;;;4.38;3.55;;;;;;;7.90;100.00;95693.81;1026178;28;20033;-71
2023/04/28 01:29:37;;;;;;;4.07;2.95;;;;;;;7.90;100.00;95693.81;1025869;28;20023;-71
2023/04/28 01:30:08;;;;;;;9.52;3.38;;;;;;;7.91;100.00;95687.53;1026126;28;20039;-71
2023/04/28 01:30:39;;;;;;;8.60;3.40;;;;;;;7.91;100.00;95694.59;1030147;28;20864;-72
2023/04/28 01:31:09;;;;;;;3.33;2.80;;;;;;;7.89;100.00;95689.63;1030165;28;20447;-71
2023/04/28 01:31:39;;;;;;;4.28;3.00;;;;;;;7.90;100.00;95698.25;1033852;28;20030;-70
2023/04/28 01:32:10;;;;;;;5.32;2.75;;;;;;;7.92;100.00;95693.56;1030236;28;20022;-70
2023/04/28 01:32:40;;;;;;;3.25;2.92;;;;;;;7.92;100.00;95690.97;1029976;28;20077;-71
2023/04/28 01:33:11;;;;;;;5.82;2.90;;;;;;;7.93;100.00;95697.75;1030008;28;20030;-71
2023/04/28 01:33:41;;;;;;;4.95;3.10;;;;;;;7.95;100.00;95691.25;1029589;28;20038;-72
2023/04/28 01:34:12;;;;;;;7.13;3.80;;;;;;;7.94;100.00;95692.28;1030079;28;20591;-71
2023/04/28 01:34:42;;;;;;;5.05;3.72;;;;;;;7.93;100.00;95692.53;1034154;28;20184;-71
2023/04/28 01:35:13;;;;;;;6.18;3.05;;;;;;;7.95;100.00;95690.47;1029904;28;20847;-70
2023/04/28 01:35:43;;;;;;;6.93;3.47;;;;;;;7.89;100.00;95681.78;1029812;28;20122;-70
2023/04/28 01:36:14;;;;;;;5.90;3.55;;;;;;;7.94;100.00;95694.09;1018140;29;20036;-71
2023/04/28 01:36:44;;;;;;;5.43;3.42;;;;;;;7.94;100.00;95694.88;1017985;29;20027;-70
2023/04/28 01:37:15;;;;;;;5.68;3.38;;;;;;;7.96;100.00;95692.03;1022201;28;20031;-71
2023/04/28 01:37:45;;;;;;;5.65;3.10;;;;;;;7.95;100.00;95695.69;1026148;28;20484;-71
2023/04/28 01:38:16;;;;;;;10.73;3.30;;;;;;;7.96;100.00;95699.88;1034449;28;20051;-72
2023/04/28 01:38:46;;;;;;;6.15;4.00;;;;;;;7.96;100.00;95690.22;1030591;28;20030;-70
2023/04/28 01:39:17;;;;;;;6.15;3.30;;;;;;;7.95;100.00;95691.25;1030738;28;20030;-70
2023/04/28 01:39:47;;;;;;;6.18;4.03;;;;;;;7.96;100.00;95695.44;1030673;28;20034;-72
2023/04/28 01:40:18;;;;;;;5.75;3.50;;;;;;;7.94;100.00;95694.09;1030908;28;20076;-73
2023/04/28 01:40:48;;;;;;;7.25;3.95;;;;;;;7.93;100.00;95690.69;1030848;28;20030;-69
2023/04/28 01:41:19;;;;;;;4.93;3.47;;;;;;;7.98;100.00;95697.78;1022889;29;20031;-72
2023/04/28 01:41:49;;;;;;;6.22;3.58;;;;;;;7.96;100.00;95697.25;1024020;28;20039;-70
2023/04/28 01:42:20;;;;;;;7.55;3.97;;;;;;;7.96;100.00;95699.88;1024254;28;20038;-72
2023/04/28 01:42:50;;;;;;;6.57;4.13;;;;;;;7.95;100.00;95700.94;1023064;28;20030;-72
2023/04/28 01:43:21;;;;;;;6.45;3.65;;;;;;;7.93;100.00;95698.53;1031021;28;20037;-72
2023/04/28 01:43:51;;;;;;;5.50;3.33;;;;;;;7.90;100.00;95695.63;1031424;28;20030;-72
2023/04/28 01:44:22;;;;;;;4.30;3.22;;;;;;;7.89;100.00;95691.44;1030715;28;20133;-72
2023/04/28 01:44:52;;;;;;;6.65;3.88;;;;;;;7.95;100.00;95695.69;1030784;28;20034;-72
2023/04/28 01:45:22;;;;;;;4.88;3.67;;;;;;;7.97;100.00;95698.84;1034587;28;20045;-71
2023/04/28 01:45:53;;;;;;;6.43;3.20;;;;;;;7.96;100.00;95702.50;1034745;28;20025;-71
2023/04/28 01:46:23;;;;;;;5.88;3.45;;;;;;;7.96;100.00;95705.09;1034721;28;20029;-72
2023/04/28 01:46:54;;;;;;;6.15;3.83;;;;;;;7.92;100.00;95696.97;1034795;28;20112;-73
2023/04/28 01:47:24;;;;;;;7.22;3.90;;;;;;;7.93;100.00;95702.97;1030859;28;20392;-69
2023/04/28 01:47:55;;;;;;;9.13;4.07;;;;;;;7.95;100.00;95706.16;1034988;28;20038;-73
2023/04/28 01:48:25;;;;;;;7.07;3.83;;;;;;;7.96;100.00;95712.94;1034604;28;20740;-73
2023/04/28 01:48:56;;;;;;;8.95;3.83;;;;;;;7.97;100.00;95709.28;1034126;28;20056;-70
2023/04/28 01:49:26;;;;;;;5.63;4.03;;;;;;;7.93;100.00;95709.00;1038908;28;20040;-70
2023/04/28 01:49:57;;;;;;;7.28;3.78;;;;;;;7.98;100.00;95705.63;1034735;28;20037;-72
2023/04/28 01:50:27;;;;;;;4.90;3.35;;;;;;;7.99;100.00;95717.69;1030516;28;20117;-70
2023/04/28 01:50:58;;;;;;;5.20;3.42;;;;;;;8.00;100.00;95714.03;1030851;28;20029;-69
2023/04/28 01:51:28;;;;;;;5.97;3.40;;;;;;;8.02;100.00;95714.56;1026764;28;20556;-73
2023/04/28 01:51:59;;;;;;;5.72;3.40;;;;;;;8.04;100.00;95709.88;1034817;28;20038;-72
2023/04/28 01:52:29;;;;;;;5.35;3.53;;;;;;;8.02;100.00;95707.53;1034735;28;20045;-71
2023/04/28 01:53:00;;;;;;;4.43;3.00;;;;;;;8.02;100.00;95712.75;1026813;28;20022;-72
2023/04/28 01:53:30;;;;;;;6.20;3.28;;;;;;;8.02;100.00;95712.75;1026877;28;20858;-73
2023/04/28 01:54:01;;;;;;;7.05;3.03;;;;;;;8.03;100.00;95716.16;1026872;28;20444;-72
2023/04/28 01:54:31;;;;;;;5.15;3.03;;;;;;;8.04;100.00;95709.88;1030686;28;20035;-72
2023/04/28 01:55:01;;;;;;;5.95;3.60;;;;;;;8.02;100.00;95712.75;1026846;28;20803;-73
2023/04/28 01:55:32;;;;;;;5.57;3.58;;;;;;;7.99;100.00;95702.00;1022862;28;20469;-73
2023/04/28 01:56:03;;;;;;;4.18;2.95;;;;;;;7.99;100.00;95705.41;1029065;28;20085;-72
2023/04/28 01:56:33;;;;;;;5.45;3.60;;;;;;;8.02;100.00;95706.75;1026728;28;20475;-72
2023/04/28 01:57:03;;;;;;;5.88;3.55;;;;;;;8.02;100.00;95707.53;1026796;28;20030;-70
2023/04/28 01:57:34;;;;;;;6.22;3.28;;;;;;;8.01;100.00;95711.19;1023037;28;20086;-72
2023/04/28 01:58:06;;;;;;;4.60;2.95;;;;;;;7.97;100.00;95704.06;1019194;29;20175;-72
2023/04/28 01:58:36;;;;;;;5.50;3.53;;;;;;;8.01;100.00;95715.59;1026475;28;20302;-72
2023/04/28 01:59:07;;;;;;;6.07;3.70;;;;;;;7.94;100.00;95707.94;1026901;28;20378;-72
2023/04/28 01:59:37;;;;;;;6.15;3.15;;;;;;;7.97;100.00;95714.50;1029938;28;20027;-71
2023/04/28 02:00:08;;;;;;;6.00;3.50;;;;;;;7.98;100.00;95716.91;1031143;28;20112;-72
2023/04/28 02:00:38;;;;;;;6.45;3.47;;;;;;;7.96;100.00;95718.94;1030879;28;20121;-73
2023/04/28 02:01:09;;;;;;;5.95;3.60;;;;;;;7.99;100.00;95720.28;1030979;28;20026;-70
2023/04/28 02:01:39;;;;;;;4.93;3.50;;;;;;;7.99;100.00;95720.28;1030801;28;20038;-70
2023/04/28 02:02:10;;;;;;;5.78;3.40;;;;;;;7.98;100.00;95718.69;1026990;28;20077;-71
2023/04/28 02:02:41;;;;;;;6.63;3.40;;;;;;;7.99;100.00;95717.69;1030785;28;20033;-71
2023/04/28 02:03:11;;;;;;;5.28;3.15;;;;;;;7.99;100.00;95718.47;1034829;28;20030;-69
2023/04/28 02:03:41;;;;;;;4.03;3.20;;;;;;;7.94;100.00;95713.16;1035007;28;20030;-70
2023/04/28 02:04:12;;;;;;;4.55;3.50;;;;;;;8.01;100.00;95720.81;1030749;28;20045;-72
2023/04/28 02:04:42;;;;;;;4.85;3.38;;;;;;;7.96;100.00;95712.94;1030648;28;20655;-72
2023/04/28 02:05:13;;;;;;;4.30;3.58;;;;;;;8.00;100.00;95719.25;1030697;28;20030;-71
2023/04/28 02:05:43;;;;;;;5.38;3.03;;;;;;;7.99;100.00;95718.47;1030934;28;20514;-71
2023/04/28 02:06:14;;;;;;;6.75;3.03;;;;;;;8.01;100.00;95721.63;1038710;28;20036;-72
2023/04/28 02:06:44;;;;;;;4.82;3.45;;;;;;;8.01;100.00;95715.59;1038939;28;20036;-73
2023/04/28 02:07:15;;;;;;;5.65;3.65;;;;;;;8.02;100.00;95714.56;1042930;28;20033;-73
2023/04/28 02:07:46;;;;;;;4.07;3.50;;;;;;;8.01;100.00;95712.97;1042893;28;20029;-68
2023/04/28 02:08:16;;;;;;;8.18;3.33;;;;;;;7.99;100.00;95709.84;1038705;28;20698;-73
2023/04/28 02:08:46;;;;;;;8.18;3.45;;;;;;;8.01;100.00;95710.38;1034338;28;20389;-73
2023/04/28 02:09:17;;;;;;;5.18;3.40;;;;;;;7.99;100.00;95702.78;1038747;28;20096;-72
2023/04/28 02:09:47;;;;;;;4.68;3.28;;;;;;;7.99;100.00;95702.00;1030693;28;20026;-72
2023/04/28 02:10:18;;;;;;;6.25;3.55;;;;;;;7.98;100.00;95706.44;1030773;28;20045;-72
2023/04/28 02:10:48;;;;;;;6.93;3.50;;;;;;;8.00;100.00;95704.34;1030686;28;20030;-73
2023/04/28 02:11:19;;;;;;;4.72;3.33;;;;;;;7.98;100.00;95703.00;1026589;28;20031;-70
2023/04/28 02:11:49;;;;;;;4.35;3.33;;;;;;;7.96;100.00;95692.03;1030610;28;20034;-71
2023/04/28 02:12:20;;;;;;;5.90;3.25;;;;;;;7.96;100.00;95692.81;1026604;28;20029;-72
2023/04/28 02:12:50;;;;;;;5.72;3.58;;;;;;;7.95;100.00;95690.47;1026433;28;20041;-72
2023/04/28 02:13:21;;;;;;;8.07;3.65;;;;;;;7.93;100.00;95685.47;1022869;28;20094;-72
2023/04/28 02:13:51;;;;;;;5.78;3.25;;;;;;;7.89;100.00;95681.00;1034687;28;20084;-68
2023/04/28 02:14:22;;;;;;;4.03;3.17;;;;;;;7.94;100.00;95688.88;1030690;28;20030;-70
2023/04/28 02:14:52;;;;;;;5.40;2.97;;;;;;;7.92;100.00;95686.53;1036303;28;20113;-71
2023/04/28 02:15:23;;;;;;;4.95;3.63;;;;;;;7.91;100.00;95689.38;1034545;28;20273;-72
2023/04/28 02:15:53;;;;;;;3.33;2.83;;;;;;;7.91;100.00;95684.13;1030588;28;20038;-73
2023/04/28 02:16:24;;;;;;;4.95;3.20;;;;;;;7.91;100.00;95691.97;1022531;29;20031;-72
2023/04/28 02:16:54;;;;;;;5.78;3.25;;;;;;;7.93;100.00;95688.09;1030741;28;20039;-72
2023/04/28 02:17:25;;;;;;;5.35;3.60;;;;;;;7.90;100.00;95679.97;1026466;28;20031;-71
2023/04/28 02:17:55;;;;;;;5.40;3.00;;;;;;;7.93;100.00;95682.88;1030591;28;20050;-72
2023/04/28 02:18:26;;;;;;;7.28;3.60;;;;;;;7.93;100.00;95685.47;1026735;28;20031;-71
2023/04/28 02:18:56;;;;;;;4.85;3.60;;;;;;;7.95;100.00;95686.03;1026094;28;20031;-72
2023/04/28 02:19:27;;;;;;;5.55;3.78;;;;;;;7.95;100.00;95677.41;1034696;28;20026;-72
2023/04/28 02:19:57;;;;;;;3.80;2.90;;;;;;;7.96;100.00;95682.38;1040263;28;20033;-73
2023/04/28 02:20:27;;;;;;;6.45;3.42;;;;;;;7.95;100.00;95680.03;1038689;28;20644;-72
2023/04/28 02:20:58;;;;;;;5.55;3.60;;;;;;;7.95;100.00;95680.03;1038842;28;20022;-70
2023/04/28 02:21:28;;;;;;;4.97;3.33;;;;;;;7.96;100.00;95677.16;1034572;28;20049;-72
2023/04/28 02:21:59;;;;;;;6.00;3.40;;;;;;;7.96;100.00;95671.13;1035501;28;20030;-71
2023/04/28 02:22:29;;;;;;;7.00;3.88;;;;;;;7.97;100.00;95677.94;1034616;28;20534;-72
2023/04/28 02:23:00;;;;;;;10.18;4.70;;;;;;;7.97;100.00;95670.09;1030576;28;20034;-72
2023/04/28 02:23:30;;;;;;;5.57;3.90;;;;;;;7.91;100.00;95660.63;1035374;28;20033;-72
2023/04/28 02:24:01;;;;;;;8.32;4.00;;;;;;;7.98;100.00;95663.81;1035376;28;20034;-72
2023/04/28 02:24:34;;;;;;;5.53;4.00;;;;;;;7.97;100.00;95672.72;1035232;28;20025;-72
2023/04/28 02:25:05;;;;;;;5.07;3.47;;;;;;;7.99;100.00;95662.81;1031156;28;20014;-72